createdAt,value
2022-12-25T00:00:22.150Z,98.50
2022-12-25T00:05:21.249Z,98.50
2022-12-25T00:10:20.041Z,98.60
2022-12-25T00:15:19.044Z,98.70
2022-12-25T00:20:18.126Z,98.70
2022-12-25T00:25:17.068Z,98.70
2022-12-25T00:30:16.079Z,98.70
2022-12-25T00:35:15.075Z,98.80
2022-12-25T00:40:14.072Z,98.90
2022-12-25T00:45:15.824Z,99.00
2022-12-25T00:50:14.143Z,99.10
2022-12-25T00:55:13.154Z,99.20
2022-12-25T01:00:12.160Z,99.20
2022-12-25T01:05:11.200Z,99.20
2022-12-25T01:10:22.204Z,99.10
2022-12-25T01:15:21.063Z,99.10
2022-12-25T01:20:20.093Z,99.10
2022-12-25T01:25:19.079Z,99.20
2022-12-25T01:30:17.969Z,99.20
2022-12-25T01:35:17.060Z,99.20
2022-12-25T01:40:16.131Z,99.20
2022-12-25T01:45:15.127Z,99.10
2022-12-25T01:50:14.051Z,99.20
2022-12-25T01:55:13.452Z,99.20
2022-12-25T02:00:12.177Z,99.30
2022-12-25T02:05:11.209Z,99.40
2022-12-25T02:10:10.230Z,99.40
2022-12-25T02:15:09.174Z,99.50
2022-12-25T02:20:08.156Z,99.60
2022-12-25T02:25:07.906Z,99.60
2022-12-25T02:30:07.055Z,99.60
2022-12-25T02:35:06.079Z,99.60
2022-12-25T02:40:05.209Z,99.60
2022-12-25T02:45:22.215Z,99.60
2022-12-25T02:50:38.946Z,99.60
2022-12-25T02:56:06.561Z,99.60
2022-12-25T03:01:23.029Z,99.60
2022-12-25T03:06:40.213Z,99.70
2022-12-25T03:11:39.153Z,99.70
2022-12-25T03:16:50.301Z,99.60
2022-12-25T03:22:08.679Z,99.70
2022-12-25T03:27:08.163Z,99.60
2022-12-25T03:32:07.098Z,99.60
2022-12-25T03:37:35.145Z,99.60
2022-12-25T03:42:53.682Z,99.60
2022-12-25T03:48:27.482Z,99.60
2022-12-25T03:53:44.287Z,99.60
2022-12-25T03:59:01.245Z,99.50
2022-12-25T04:04:18.485Z,99.50
2022-12-25T04:09:35.311Z,99.50
2022-12-25T04:14:52.094Z,99.60
2022-12-25T04:20:09.386Z,99.70
2022-12-25T04:25:25.938Z,99.70
2022-12-25T04:30:43.253Z,99.60
2022-12-25T04:36:00.153Z,99.60
2022-12-25T04:40:59.193Z,99.60
2022-12-25T04:45:58.444Z,99.60
2022-12-25T04:50:57.213Z,99.60
2022-12-25T04:55:56.184Z,99.50
2022-12-25T05:00:55.217Z,99.50
2022-12-25T05:05:54.298Z,99.50
2022-12-25T05:10:53.280Z,99.50
2022-12-25T05:15:52.280Z,99.50
2022-12-25T05:20:54.210Z,99.50
2022-12-25T05:25:53.138Z,99.50
2022-12-25T05:30:52.209Z,99.60
2022-12-25T05:35:51.302Z,99.60
2022-12-25T05:40:50.173Z,99.40
2022-12-25T05:45:49.098Z,99.30
2022-12-25T05:50:48.195Z,99.30
2022-12-25T05:55:47.209Z,99.20
2022-12-25T06:00:46.232Z,99.10
2022-12-25T06:05:45.553Z,99.00
2022-12-25T06:10:44.273Z,99.00
2022-12-25T06:15:43.206Z,99.20
2022-12-25T06:20:42.087Z,99.20
2022-12-25T06:25:41.292Z,99.20
2022-12-25T06:30:40.405Z,99.30
2022-12-25T06:35:39.450Z,99.30
2022-12-25T06:40:39.341Z,99.20
2022-12-25T06:45:38.125Z,99.20
2022-12-25T06:50:37.358Z,99.20
2022-12-25T06:55:36.241Z,99.20
2022-12-25T07:00:35.169Z,99.20
2022-12-25T07:05:34.164Z,99.20
2022-12-25T07:10:33.210Z,99.20
2022-12-25T07:15:32.534Z,99.30
2022-12-25T07:20:31.277Z,99.30
2022-12-25T07:25:36.822Z,99.30
2022-12-25T07:30:31.293Z,99.40
2022-12-25T07:35:30.291Z,99.40
2022-12-25T07:40:29.311Z,99.40
2022-12-25T07:45:28.421Z,99.40
2022-12-25T07:50:30.259Z,99.40
2022-12-25T07:55:29.096Z,99.30
2022-12-25T08:00:30.118Z,99.30
2022-12-25T08:05:29.287Z,99.40
2022-12-25T08:10:28.310Z,99.40
2022-12-25T08:15:27.319Z,99.50
2022-12-25T08:20:26.312Z,99.60
2022-12-25T08:25:25.394Z,99.60
2022-12-25T08:30:24.145Z,99.70
2022-12-25T08:35:23.111Z,99.70
2022-12-25T08:40:22.379Z,99.70
2022-12-25T08:45:21.368Z,99.80
2022-12-25T08:50:20.389Z,99.90
2022-12-25T08:55:19.402Z,99.90
2022-12-25T09:00:18.224Z,99.90
2022-12-25T09:05:17.220Z,99.90
2022-12-25T09:10:16.464Z,99.90
2022-12-25T09:15:15.412Z,99.90
2022-12-25T09:20:17.242Z,99.90
2022-12-25T09:25:16.441Z,99.90
2022-12-25T09:30:15.351Z,99.90
2022-12-25T09:35:16.232Z,99.90
2022-12-25T09:40:15.390Z,99.90
2022-12-25T09:45:14.261Z,99.90
2022-12-25T09:50:13.431Z,99.90
2022-12-25T09:55:17.878Z,99.90
2022-12-25T10:00:13.296Z,99.90
2022-12-25T10:05:12.447Z,99.90
2022-12-25T10:10:11.818Z,99.90
2022-12-25T10:15:11.373Z,99.90
2022-12-25T10:20:10.776Z,99.90
2022-12-25T10:25:09.385Z,99.90
2022-12-25T10:30:08.195Z,99.90
2022-12-25T10:35:07.275Z,99.90
2022-12-25T10:40:06.438Z,99.90
2022-12-25T10:45:05.639Z,99.90
2022-12-25T10:50:04.453Z,99.90
2022-12-25T10:55:03.279Z,99.90
2022-12-25T11:00:02.586Z,99.90
2022-12-25T11:05:02.126Z,99.90
2022-12-25T11:10:05.174Z,99.90
2022-12-25T11:15:02.371Z,99.90
2022-12-25T11:20:01.586Z,99.90
2022-12-25T11:25:00.403Z,99.90
2022-12-25T11:29:59.522Z,99.90
2022-12-25T11:34:58.416Z,99.90
2022-12-25T11:39:57.431Z,99.90
2022-12-25T11:44:56.437Z,99.90
2022-12-25T11:50:00.319Z,99.90
2022-12-25T11:54:56.523Z,99.90
2022-12-25T11:59:55.573Z,99.90
2022-12-25T12:04:55.547Z,99.90
2022-12-25T12:09:54.496Z,99.90
2022-12-25T12:14:53.526Z,99.90
2022-12-25T12:19:53.418Z,99.90
2022-12-25T12:24:52.414Z,99.90
2022-12-25T12:29:51.420Z,99.90
2022-12-25T12:34:50.347Z,99.90
2022-12-25T12:39:49.463Z,99.90
2022-12-25T12:44:48.481Z,99.90
2022-12-25T12:49:47.507Z,99.90
2022-12-25T12:54:46.493Z,99.90
2022-12-25T12:59:46.596Z,99.90
2022-12-25T13:04:45.529Z,99.90
2022-12-25T13:09:44.556Z,99.90
2022-12-25T13:14:43.558Z,99.90
2022-12-25T13:19:42.462Z,99.90
2022-12-25T13:24:41.382Z,99.90
2022-12-25T13:29:40.374Z,99.90
2022-12-25T13:34:39.458Z,99.90
2022-12-25T13:39:38.404Z,99.90
2022-12-25T13:44:37.435Z,99.90
2022-12-25T13:49:36.387Z,99.90
2022-12-25T13:54:35.448Z,99.90
2022-12-25T13:59:34.446Z,99.90
2022-12-25T14:04:33.364Z,99.90
2022-12-25T14:09:32.345Z,99.90
2022-12-25T14:14:31.495Z,99.90
2022-12-25T14:19:30.517Z,99.90
2022-12-25T14:24:29.555Z,99.90
2022-12-25T14:29:28.725Z,99.90
2022-12-25T14:34:27.543Z,99.90
2022-12-25T14:39:26.565Z,99.90
2022-12-25T14:44:25.616Z,99.90
2022-12-25T14:49:24.588Z,99.90
2022-12-25T14:54:23.383Z,99.90
2022-12-25T14:59:22.581Z,99.90
2022-12-25T15:04:23.289Z,99.90
2022-12-25T15:09:22.531Z,99.90
2022-12-25T15:14:21.472Z,99.90
2022-12-25T15:19:25.202Z,99.90
2022-12-25T15:24:21.550Z,99.90
2022-12-25T15:29:38.157Z,99.90
2022-12-25T15:34:21.723Z,99.90
2022-12-25T15:39:20.762Z,99.90
2022-12-25T15:44:19.782Z,99.90
2022-12-25T15:49:18.435Z,99.90
2022-12-25T15:54:17.697Z,99.90
2022-12-25T15:59:17.356Z,99.90
2022-12-25T16:04:16.385Z,99.90
2022-12-25T16:09:15.400Z,99.90
2022-12-25T16:14:14.637Z,99.90
2022-12-25T16:19:13.521Z,99.90
2022-12-25T16:24:13.240Z,99.90
2022-12-25T16:29:12.456Z,99.90
2022-12-25T16:34:11.583Z,99.90
2022-12-25T16:39:10.580Z,99.90
2022-12-25T16:44:10.698Z,99.90
2022-12-25T16:49:09.650Z,99.90
2022-12-25T16:54:08.463Z,99.90
2022-12-25T16:59:07.485Z,99.90
2022-12-25T17:04:06.732Z,99.90
2022-12-25T17:09:05.757Z,99.90
2022-12-25T17:14:04.769Z,99.90
2022-12-25T17:19:04.166Z,99.90
2022-12-25T17:24:04.384Z,99.90
2022-12-25T17:29:03.710Z,99.90
2022-12-25T17:34:02.588Z,99.90
2022-12-25T17:39:02.171Z,99.90
2022-12-25T17:44:01.635Z,99.90
2022-12-25T17:49:00.893Z,99.90
2022-12-25T17:53:59.552Z,99.90
2022-12-25T17:58:58.492Z,99.90
2022-12-25T18:03:57.738Z,99.90
2022-12-25T18:08:56.676Z,99.90
2022-12-25T18:13:57.669Z,99.90
2022-12-25T18:18:56.900Z,99.90
2022-12-25T18:23:55.464Z,99.90
2022-12-25T18:28:54.613Z,99.90
2022-12-25T18:33:53.888Z,99.90
2022-12-25T18:38:52.539Z,99.90
2022-12-25T18:43:55.581Z,99.90
2022-12-25T18:48:52.671Z,99.90
2022-12-25T18:53:51.822Z,99.90
2022-12-25T18:58:50.528Z,99.90
2022-12-25T19:03:50.592Z,99.90
2022-12-25T19:08:49.524Z,99.90
2022-12-25T19:13:50.250Z,99.90
2022-12-25T19:18:49.591Z,99.90
2022-12-25T19:23:48.607Z,99.90
2022-12-25T19:28:47.523Z,99.90
2022-12-25T19:33:46.624Z,99.90
2022-12-25T19:38:45.558Z,99.90
2022-12-25T19:43:45.165Z,99.90
2022-12-25T19:48:44.680Z,99.90
2022-12-25T19:53:43.716Z,99.90
2022-12-25T19:58:42.566Z,99.90
2022-12-25T20:03:46.472Z,99.90
2022-12-25T20:08:44.712Z,99.90
2022-12-25T20:13:43.640Z,99.90
2022-12-25T20:18:42.653Z,99.90
2022-12-25T20:23:41.670Z,99.90
2022-12-25T20:28:41.172Z,99.90
2022-12-25T20:33:39.708Z,99.90
2022-12-25T20:38:38.783Z,99.90
2022-12-25T20:43:43.277Z,99.90
2022-12-25T20:48:38.764Z,99.90
2022-12-25T20:53:37.788Z,99.90
2022-12-25T20:58:36.700Z,99.90
2022-12-25T21:03:35.872Z,99.90
2022-12-25T21:08:35.068Z,99.90
2022-12-25T21:13:33.859Z,99.90
2022-12-25T21:18:33.153Z,99.90
2022-12-25T21:23:32.690Z,99.90
2022-12-25T21:28:32.013Z,99.90
2022-12-25T21:33:48.808Z,99.90
2022-12-25T21:38:47.766Z,99.90
2022-12-25T21:43:46.732Z,99.90
2022-12-25T21:48:45.858Z,99.90
2022-12-25T21:53:44.769Z,99.90
2022-12-25T21:58:43.772Z,99.90
2022-12-25T22:03:42.709Z,99.90
2022-12-25T22:08:41.794Z,99.90
2022-12-25T22:13:59.126Z,99.90
2022-12-25T22:19:15.827Z,99.90
2022-12-25T22:24:14.672Z,99.90
2022-12-25T22:29:13.773Z,99.90
2022-12-25T22:34:13.203Z,99.90
2022-12-25T22:39:12.728Z,99.90
2022-12-25T22:44:18.907Z,99.90
2022-12-25T22:49:12.789Z,99.90
2022-12-25T22:54:12.831Z,99.90
2022-12-25T22:59:11.758Z,99.90
2022-12-25T23:04:10.890Z,99.90
2022-12-25T23:09:09.976Z,99.90
2022-12-25T23:14:27.047Z,99.90
2022-12-25T23:19:43.865Z,99.90
2022-12-25T23:25:00.932Z,99.90
2022-12-25T23:29:59.767Z,99.90
2022-12-25T23:34:58.693Z,99.90
2022-12-25T23:39:57.598Z,99.90
2022-12-25T23:44:56.817Z,99.90
2022-12-25T23:49:55.731Z,99.90
2022-12-25T23:54:54.847Z,99.90
2022-12-25T23:59:53.834Z,99.90
